sensor_id;sensor_type;location;lat;lon;timestamp;P1;durP1;ratioP1;P2;durP2;ratioP2
18130;SDS011;9191;54.324;10.126;2023-02-28T00:35:41;508.70;;;200.70;;
18130;SDS011;9191;54.324;10.126;2023-02-28T00:45:30;513.90;;;210.40;;
18130;SDS011;9191;54.324;10.126;2023-02-28T01:07:32;506.90;;;198.00;;
18130;SDS011;9191;54.324;10.126;2023-02-28T01:09:59;504.20;;;186.80;;
18130;SDS011;9191;54.324;10.126;2023-02-28T01:27:07;507.90;;;196.40;;
18130;SDS011;9191;54.324;10.126;2023-02-28T02:04:14;505.30;;;188.30;;
18130;SDS011;9191;54.324;10.126;2023-02-28T02:30:19;507.00;;;182.70;;
18130;SDS011;9191;54.324;10.126;2023-02-28T02:40:54;503.70;;;181.70;;
18130;SDS011;9191;54.324;10.126;2023-02-28T02:48:21;504.60;;;182.10;;
18130;SDS011;9191;54.324;10.126;2023-02-28T02:50:55;505.60;;;187.20;;
18130;SDS011;9191;54.324;10.126;2023-02-28T03:05:55;508.90;;;192.10;;
18130;SDS011;9191;54.324;10.126;2023-02-28T03:23:32;504.80;;;181.30;;
18130;SDS011;9191;54.324;10.126;2023-02-28T05:07:18;502.10;;;165.70;;
18130;SDS011;9191;54.324;10.126;2023-02-28T07:22:43;509.60;;;192.10;;
18130;SDS011;9191;54.324;10.126;2023-02-28T07:27:37;484.00;;;140.50;;
18130;SDS011;9191;54.324;10.126;2023-02-28T07:30:04;487.30;;;173.63;;
18130;SDS011;9191;54.324;10.126;2023-02-28T07:32:32;502.80;;;217.68;;
18130;SDS011;9191;54.324;10.126;2023-02-28T07:35:00;514.40;;;243.00;;
18130;SDS011;9191;54.324;10.126;2023-02-28T07:37:30;516.60;;;252.77;;
18130;SDS011;9191;54.324;10.126;2023-02-28T07:40:01;522.25;;;282.17;;
18130;SDS011;9191;54.324;10.126;2023-02-28T07:42:31;523.50;;;296.05;;
18130;SDS011;9191;54.324;10.126;2023-02-28T07:44:58;524.47;;;309.60;;
18130;SDS011;9191;54.324;10.126;2023-02-28T07:47:25;527.63;;;329.88;;
18130;SDS011;9191;54.324;10.126;2023-02-28T07:49:51;526.60;;;323.67;;
18130;SDS011;9191;54.324;10.126;2023-02-28T07:52:20;528.90;;;325.92;;
18130;SDS011;9191;54.324;10.126;2023-02-28T07:54:48;528.60;;;341.37;;
18130;SDS011;9191;54.324;10.126;2023-02-28T07:57:15;534.53;;;367.63;;
18130;SDS011;9191;54.324;10.126;2023-02-28T07:59:42;542.92;;;422.52;;
18130;SDS011;9191;54.324;10.126;2023-02-28T08:02:10;548.50;;;455.70;;
18130;SDS011;9191;54.324;10.126;2023-02-28T08:04:39;558.13;;;495.65;;
18130;SDS011;9191;54.324;10.126;2023-02-28T08:07:06;586.38;;;524.28;;
18130;SDS011;9191;54.324;10.126;2023-02-28T08:09:35;688.20;;;557.40;;
18130;SDS011;9191;54.324;10.126;2023-02-28T08:12:02;630.15;;;566.83;;
18130;SDS011;9191;54.324;10.126;2023-02-28T08:14:29;657.65;;;594.17;;
18130;SDS011;9191;54.324;10.126;2023-02-28T08:16:56;662.78;;;599.38;;
18130;SDS011;9191;54.324;10.126;2023-02-28T08:19:23;701.38;;;626.97;;
18130;SDS011;9191;54.324;10.126;2023-02-28T08:21:50;670.03;;;606.22;;
18130;SDS011;9191;54.324;10.126;2023-02-28T08:24:17;661.50;;;598.00;;
18130;SDS011;9191;54.324;10.126;2023-02-28T08:26:45;661.97;;;598.58;;
18130;SDS011;9191;54.324;10.126;2023-02-28T08:29:12;683.22;;;619.22;;
18130;SDS011;9191;54.324;10.126;2023-02-28T08:31:39;688.43;;;624.70;;
18130;SDS011;9191;54.324;10.126;2023-02-28T08:34:07;710.88;;;646.42;;
18130;SDS011;9191;54.324;10.126;2023-02-28T08:36:36;711.73;;;647.10;;
18130;SDS011;9191;54.324;10.126;2023-02-28T08:39:03;710.95;;;646.53;;
18130;SDS011;9191;54.324;10.126;2023-02-28T08:41:30;701.33;;;637.08;;
18130;SDS011;9191;54.324;10.126;2023-02-28T08:43:59;696.10;;;631.87;;
18130;SDS011;9191;54.324;10.126;2023-02-28T08:46:26;715.67;;;650.92;;
18130;SDS011;9191;54.324;10.126;2023-02-28T08:48:53;713.50;;;648.75;;
18130;SDS011;9191;54.324;10.126;2023-02-28T08:51:24;714.08;;;649.65;;
18130;SDS011;9191;54.324;10.126;2023-02-28T08:53:52;728.00;;;663.45;;
18130;SDS011;9191;54.324;10.126;2023-02-28T08:56:19;737.13;;;672.28;;
18130;SDS011;9191;54.324;10.126;2023-02-28T08:58:47;722.00;;;657.35;;
18130;SDS011;9191;54.324;10.126;2023-02-28T09:01:18;726.05;;;661.28;;
18130;SDS011;9191;54.324;10.126;2023-02-28T09:03:47;726.45;;;661.50;;
18130;SDS011;9191;54.324;10.126;2023-02-28T09:06:15;720.60;;;655.78;;
18130;SDS011;9191;54.324;10.126;2023-02-28T09:08:43;730.10;;;665.20;;
18130;SDS011;9191;54.324;10.126;2023-02-28T09:11:11;736.90;;;672.10;;
18130;SDS011;9191;54.324;10.126;2023-02-28T09:13:38;744.90;;;679.92;;
18130;SDS011;9191;54.324;10.126;2023-02-28T09:16:07;758.22;;;693.00;;
18130;SDS011;9191;54.324;10.126;2023-02-28T09:18:38;754.03;;;688.63;;
18130;SDS011;9191;54.324;10.126;2023-02-28T09:21:06;783.20;;;716.97;;
18130;SDS011;9191;54.324;10.126;2023-02-28T09:23:35;791.47;;;725.47;;
18130;SDS011;9191;54.324;10.126;2023-02-28T09:26:06;804.30;;;737.92;;
18130;SDS011;9191;54.324;10.126;2023-02-28T09:28:33;815.08;;;748.28;;
18130;SDS011;9191;54.324;10.126;2023-02-28T09:31:02;825.45;;;758.55;;
18130;SDS011;9191;54.324;10.126;2023-02-28T09:33:29;824.72;;;757.78;;
18130;SDS011;9191;54.324;10.126;2023-02-28T09:36:01;780.88;;;715.00;;
18130;SDS011;9191;54.324;10.126;2023-02-28T09:38:31;741.15;;;675.10;;
18130;SDS011;9191;54.324;10.126;2023-02-28T09:41:10;740.15;;;668.88;;
18130;SDS011;9191;54.324;10.126;2023-02-28T09:43:40;762.00;;;695.08;;
18130;SDS011;9191;54.324;10.126;2023-02-28T09:46:14;774.95;;;709.08;;
18130;SDS011;9191;54.324;10.126;2023-02-28T09:48:51;779.00;;;712.90;;
18130;SDS011;9191;54.324;10.126;2023-02-28T09:51:27;778.45;;;712.70;;
18130;SDS011;9191;54.324;10.126;2023-02-28T09:54:00;780.92;;;715.08;;
18130;SDS011;9191;54.324;10.126;2023-02-28T09:56:31;783.58;;;717.67;;
18130;SDS011;9191;54.324;10.126;2023-02-28T09:59:02;802.27;;;736.00;;
18130;SDS011;9191;54.324;10.126;2023-02-28T10:01:39;819.17;;;752.40;;
18130;SDS011;9191;54.324;10.126;2023-02-28T10:04:15;827.00;;;760.05;;
18130;SDS011;9191;54.324;10.126;2023-02-28T10:06:54;811.00;;;744.33;;
18130;SDS011;9191;54.324;10.126;2023-02-28T10:09:23;798.65;;;732.33;;
18130;SDS011;9191;54.324;10.126;2023-02-28T10:11:53;780.22;;;714.30;;
18130;SDS011;9191;54.324;10.126;2023-02-28T10:14:24;750.50;;;685.58;;
18130;SDS011;9191;54.324;10.126;2023-02-28T10:16:55;763.33;;;697.85;;
18130;SDS011;9191;54.324;10.126;2023-02-28T10:19:25;779.35;;;713.55;;
18130;SDS011;9191;54.324;10.126;2023-02-28T10:21:59;770.75;;;705.28;;
18130;SDS011;9191;54.324;10.126;2023-02-28T10:24:30;782.13;;;716.38;;
18130;SDS011;9191;54.324;10.126;2023-02-28T10:27:01;778.75;;;712.95;;
18130;SDS011;9191;54.324;10.126;2023-02-28T10:29:37;743.65;;;678.65;;
18130;SDS011;9191;54.324;10.126;2023-02-28T10:32:08;706.10;;;642.03;;
18130;SDS011;9191;54.324;10.126;2023-02-28T10:34:37;659.88;;;596.45;;
18130;SDS011;9191;54.324;10.126;2023-02-28T10:37:05;609.03;;;546.60;;
18130;SDS011;9191;54.324;10.126;2023-02-28T10:39:34;561.78;;;500.50;;
18130;SDS011;9191;54.324;10.126;2023-02-28T10:42:02;544.47;;;461.08;;
18130;SDS011;9191;54.324;10.126;2023-02-28T10:44:32;545.88;;;442.38;;
18130;SDS011;9191;54.324;10.126;2023-02-28T10:47:02;537.45;;;399.23;;
18130;SDS011;9191;54.324;10.126;2023-02-28T10:49:29;529.67;;;357.58;;
18130;SDS011;9191;54.324;10.126;2023-02-28T10:51:57;529.80;;;345.15;;
18130;SDS011;9191;54.324;10.126;2023-02-28T10:54:29;530.65;;;335.63;;
18130;SDS011;9191;54.324;10.126;2023-02-28T10:57:07;522.60;;;324.57;;
18130;SDS011;9191;54.324;10.126;2023-02-28T10:59:41;524.53;;;330.30;;
18130;SDS011;9191;54.324;10.126;2023-02-28T11:04:58;524.42;;;321.48;;
18130;SDS011;9191;54.324;10.126;2023-02-28T11:07:25;525.35;;;325.08;;
18130;SDS011;9191;54.324;10.126;2023-02-28T11:09:57;523.65;;;318.10;;
18130;SDS011;9191;54.324;10.126;2023-02-28T11:12:25;518.50;;;299.27;;
18130;SDS011;9191;54.324;10.126;2023-02-28T11:14:55;515.85;;;295.85;;
18130;SDS011;9191;54.324;10.126;2023-02-28T11:17:26;505.00;;;286.25;;
18130;SDS011;9191;54.324;10.126;2023-02-28T11:19:57;506.10;;;268.50;;
18130;SDS011;9191;54.324;10.126;2023-02-28T11:22:28;499.70;;;254.80;;
18130;SDS011;9191;54.324;10.126;2023-02-28T11:25:08;502.00;;;248.10;;
18130;SDS011;9191;54.324;10.126;2023-02-28T11:27:49;500.25;;;254.85;;
18130;SDS011;9191;54.324;10.126;2023-02-28T11:30:28;495.35;;;223.55;;
18130;SDS011;9191;54.324;10.126;2023-02-28T11:32:57;491.50;;;219.90;;
18130;SDS011;9191;54.324;10.126;2023-02-28T11:35:26;493.90;;;221.90;;
18130;SDS011;9191;54.324;10.126;2023-02-28T11:37:56;491.40;;;210.30;;
18130;SDS011;9191;54.324;10.126;2023-02-28T11:40:28;490.40;;;205.50;;
18130;SDS011;9191;54.324;10.126;2023-02-28T11:43:02;490.00;;;202.55;;
18130;SDS011;9191;54.324;10.126;2023-02-28T11:45:40;488.85;;;200.90;;
18130;SDS011;9191;54.324;10.126;2023-02-28T11:48:14;488.70;;;202.60;;
18130;SDS011;9191;54.324;10.126;2023-02-28T11:50:49;487.10;;;200.80;;
18130;SDS011;9191;54.324;10.126;2023-02-28T11:53:32;492.70;;;216.20;;
18130;SDS011;9191;54.324;10.126;2023-02-28T11:56:16;492.20;;;212.50;;
18130;SDS011;9191;54.324;10.126;2023-02-28T11:58:51;492.35;;;215.15;;
18130;SDS011;9191;54.324;10.126;2023-02-28T12:01:31;492.50;;;217.00;;
18130;SDS011;9191;54.324;10.126;2023-02-28T12:04:11;491.20;;;219.20;;
18130;SDS011;9191;54.324;10.126;2023-02-28T12:06:47;492.70;;;212.15;;
18130;SDS011;9191;54.324;10.126;2023-02-28T12:12:01;488.65;;;199.80;;
18130;SDS011;9191;54.324;10.126;2023-02-28T12:17:20;491.75;;;196.95;;
18130;SDS011;9191;54.324;10.126;2023-02-28T12:19:56;488.70;;;199.25;;
18130;SDS011;9191;54.324;10.126;2023-02-28T12:22:34;490.00;;;207.45;;
18130;SDS011;9191;54.324;10.126;2023-02-28T12:25:21;492.20;;;219.40;;
18130;SDS011;9191;54.324;10.126;2023-02-28T12:27:58;490.50;;;216.60;;
18130;SDS011;9191;54.324;10.126;2023-02-28T12:32:58;491.20;;;201.15;;
18130;SDS011;9191;54.324;10.126;2023-02-28T12:38:02;492.90;;;195.80;;
18130;SDS011;9191;54.324;10.126;2023-02-28T12:40:34;490.80;;;186.10;;
18130;SDS011;9191;54.324;10.126;2023-02-28T12:45:40;490.70;;;188.60;;
18130;SDS011;9191;54.324;10.126;2023-02-28T12:50:40;490.40;;;189.80;;
18130;SDS011;9191;54.324;10.126;2023-02-28T12:53:08;491.20;;;190.60;;
18130;SDS011;9191;54.324;10.126;2023-02-28T12:55:40;491.80;;;197.80;;
18130;SDS011;9191;54.324;10.126;2023-02-28T12:58:14;492.50;;;205.60;;
18130;SDS011;9191;54.324;10.126;2023-02-28T13:00:50;490.60;;;209.00;;
18130;SDS011;9191;54.324;10.126;2023-02-28T13:03:42;491.20;;;210.40;;
18130;SDS011;9191;54.324;10.126;2023-02-28T13:06:24;491.50;;;210.30;;
18130;SDS011;9191;54.324;10.126;2023-02-28T13:09:02;496.70;;;209.70;;
18130;SDS011;9191;54.324;10.126;2023-02-28T13:11:32;489.50;;;197.65;;
18130;SDS011;9191;54.324;10.126;2023-02-28T13:14:16;491.20;;;192.10;;
18130;SDS011;9191;54.324;10.126;2023-02-28T13:16:49;491.00;;;188.70;;
18130;SDS011;9191;54.324;10.126;2023-02-28T13:21:57;489.60;;;200.20;;
18130;SDS011;9191;54.324;10.126;2023-02-28T13:24:39;490.75;;;206.00;;
18130;SDS011;9191;54.324;10.126;2023-02-28T13:40:53;490.20;;;210.90;;
18130;SDS011;9191;54.324;10.126;2023-02-28T13:43:24;494.40;;;216.80;;
18130;SDS011;9191;54.324;10.126;2023-02-28T13:46:29;493.00;;;221.20;;
18130;SDS011;9191;54.324;10.126;2023-02-28T13:51:48;493.30;;;220.50;;
18130;SDS011;9191;54.324;10.126;2023-02-28T13:56:55;494.20;;;215.30;;
18130;SDS011;9191;54.324;10.126;2023-02-28T14:07:28;489.10;;;202.70;;
18130;SDS011;9191;54.324;10.126;2023-02-28T14:15:25;493.10;;;197.90;;
18130;SDS011;9191;54.324;10.126;2023-02-28T14:25:39;491.70;;;189.15;;
18130;SDS011;9191;54.324;10.126;2023-02-28T14:48:42;493.40;;;175.90;;
18130;SDS011;9191;54.324;10.126;2023-02-28T14:56:18;486.50;;;177.00;;
18130;SDS011;9191;54.324;10.126;2023-02-28T14:58:50;496.60;;;190.30;;
18130;SDS011;9191;54.324;10.126;2023-02-28T15:03:47;489.60;;;192.10;;
18130;SDS011;9191;54.324;10.126;2023-02-28T15:06:22;489.70;;;196.40;;
18130;SDS011;9191;54.324;10.126;2023-02-28T15:13:58;493.40;;;207.50;;
18130;SDS011;9191;54.324;10.126;2023-02-28T15:18:57;488.40;;;194.70;;
18130;SDS011;9191;54.324;10.126;2023-02-28T15:33:53;488.90;;;176.90;;
18130;SDS011;9191;54.324;10.126;2023-02-28T15:54:17;488.80;;;182.10;;
18130;SDS011;9191;54.324;10.126;2023-02-28T16:06:40;487.90;;;174.40;;
18130;SDS011;9191;54.324;10.126;2023-02-28T16:11:39;492.30;;;183.70;;
18130;SDS011;9191;54.324;10.126;2023-02-28T16:48:51;497.50;;;185.40;;
18130;SDS011;9191;54.324;10.126;2023-02-28T16:58:41;497.00;;;192.80;;
18130;SDS011;9191;54.324;10.126;2023-02-28T17:28:23;509.10;;;227.20;;
